Time;durP1;ratioP1;P1;durP2;ratioP2;P2;SDS_P1;SDS_P2;PMS_P1;PMS_P2;Temp;Humidity;BMP_temperature;BMP_pressure;BME280_temperature;BME280_humidity;BME280_pressure;Samples;Min_cycle;Max_cycle;Signal;HPM_P1;HPM_P2
2023/05/03 00:01:36;;;;;;;8.60;3.92;;;6.30;99.90;;;;;;5068014;28;20407;-78
2023/05/03 00:04:02;;;;;;;9.07;4.15;;;6.30;99.90;;;;;;5080401;28;20509;-76
2023/05/03 00:06:28;;;;;;;7.72;3.70;;;6.20;99.90;;;;;;5087917;28;20449;-78
2023/05/03 00:08:54;;;;;;;11.00;4.37;;;6.30;99.90;;;;;;5088569;28;21092;-76
2023/05/03 00:11:20;;;;;;;7.83;4.33;;;6.20;99.90;;;;;;5087354;28;20489;-77
2023/05/03 00:13:46;;;;;;;8.85;3.75;;;6.30;99.90;;;;;;5078125;28;20428;-78
2023/05/03 00:16:11;;;;;;;8.25;3.83;;;6.20;99.90;;;;;;5069515;28;20900;-76
2023/05/03 00:18:37;;;;;;;9.37;4.67;;;6.20;99.90;;;;;;5067452;28;20557;-77
2023/05/03 00:21:03;;;;;;;10.32;4.72;;;6.20;99.90;;;;;;5068505;28;20419;-76
2023/05/03 00:23:28;;;;;;;10.27;4.20;;;6.10;99.90;;;;;;5074916;28;20414;-78
2023/05/03 00:25:55;;;;;;;11.23;5.13;;;6.20;99.90;;;;;;5088364;28;20410;-77
2023/05/03 00:28:21;;;;;;;8.68;4.38;;;6.10;99.90;;;;;;5079275;28;20477;-77
2023/05/03 00:30:47;;;;;;;12.67;4.50;;;6.20;99.90;;;;;;5057133;28;20420;-75
2023/05/03 00:33:13;;;;;;;8.30;5.63;;;6.20;99.90;;;;;;5071584;28;20417;-76
2023/05/03 00:35:39;;;;;;;9.60;4.00;;;6.20;99.90;;;;;;5086783;28;20474;-77
2023/05/03 00:38:05;;;;;;;8.70;3.90;;;6.20;99.90;;;;;;5082895;28;20433;-78
2023/05/03 00:40:31;;;;;;;6.87;3.67;;;6.10;99.90;;;;;;5068781;28;20966;-77
2023/05/03 00:42:56;;;;;;;8.70;4.17;;;6.20;99.90;;;;;;5069921;28;20408;-77
2023/05/03 00:45:22;;;;;;;6.40;3.40;;;6.30;99.90;;;;;;5068886;28;20949;-77
2023/05/03 00:47:48;;;;;;;7.10;3.80;;;6.40;99.90;;;;;;5070056;28;20514;-78
2023/05/03 00:50:14;;;;;;;5.30;3.00;;;6.20;99.90;;;;;;5068685;28;20411;-77
2023/05/03 00:52:40;;;;;;;4.68;2.53;;;6.30;99.90;;;;;;5068611;28;20392;-76
2023/05/03 00:55:08;;;;;;;5.13;2.42;;;6.40;99.90;;;;;;5081469;28;20434;-77
2023/05/03 00:57:34;;;;;;;6.03;2.20;;;6.20;99.90;;;;;;5088661;28;20929;-77
2023/05/03 00:59:59;;;;;;;7.57;2.50;;;6.40;99.90;;;;;;5069145;28;20431;-77
2023/05/03 01:02:26;;;;;;;5.13;1.83;;;6.40;99.90;;;;;;5067657;28;20403;-76
2023/05/03 01:04:54;;;;;;;6.20;2.10;;;6.60;99.90;;;;;;5079472;28;20442;-78
2023/05/03 01:07:25;;;;;;;4.20;2.08;;;6.70;99.90;;;;;;5073790;28;20925;-77
2023/05/03 01:10:01;;;;;;;4.93;2.40;;;6.70;99.90;;;;;;5061507;28;20437;-75
2023/05/03 01:12:39;;;;;;;7.00;3.03;;;6.60;99.90;;;;;;5065672;28;21022;-76
2023/05/03 01:15:14;;;;;;;7.80;3.00;;;6.60;99.90;;;;;;5092268;23;20536;-76
2023/05/03 01:17:50;;;;;;;6.40;3.05;;;6.60;99.90;;;;;;5004245;28;20430;-77
2023/05/03 01:20:23;;;;;;;5.78;2.78;;;6.40;99.90;;;;;;5023935;28;21132;-78
2023/05/03 01:22:58;;;;;;;5.88;2.85;;;6.40;99.90;;;;;;5021820;28;20413;-77
2023/05/03 01:25:25;;;;;;;7.45;3.40;;;6.50;99.90;;;;;;5008017;28;20807;-77
2023/05/03 01:27:50;;;;;;;7.18;3.38;;;6.40;99.90;;;;;;5008105;28;20407;-78
2023/05/03 01:30:16;;;;;;;8.07;2.85;;;6.40;99.90;;;;;;5008552;28;20417;-77
2023/05/03 01:33:00;;;;;;;6.18;2.53;;;6.50;99.90;;;;;;5007962;28;20752;-76
2023/05/03 01:35:43;;;;;;;6.80;2.97;;;6.40;99.90;;;;;;5008815;28;20417;-75
2023/05/03 01:38:10;;;;;;;7.47;3.45;;;6.50;99.90;;;;;;5014304;28;20412;-76
2023/05/03 01:40:42;;;;;;;5.30;2.70;;;6.50;99.90;;;;;;5006924;28;20867;-76
2023/05/03 01:43:11;;;;;;;7.65;3.95;;;6.50;99.90;;;;;;5006858;28;20424;-76
2023/05/03 01:45:36;;;;;;;11.25;4.43;;;6.30;99.90;;;;;;5006491;28;20484;-77
2023/05/03 01:48:07;;;;;;;8.73;4.33;;;6.30;99.90;;;;;;5006490;28;20425;-77
2023/05/03 01:50:33;;;;;;;10.20;3.55;;;6.20;99.90;;;;;;5007045;28;20424;-78
2023/05/03 01:52:59;;;;;;;9.13;4.22;;;6.10;99.90;;;;;;5022572;28;20829;-77
2023/05/03 01:55:24;;;;;;;8.10;3.50;;;6.30;99.90;;;;;;5021870;28;20748;-76
2023/05/03 01:57:50;;;;;;;7.73;3.60;;;6.30;99.90;;;;;;5006003;28;20436;-77
2023/05/03 02:00:16;;;;;;;7.63;4.00;;;6.20;99.90;;;;;;5006694;28;20523;-74
2023/05/03 02:02:41;;;;;;;5.63;3.50;;;6.20;99.90;;;;;;5007087;28;20922;-76
2023/05/03 02:05:08;;;;;;;4.87;2.83;;;6.30;99.90;;;;;;5007006;28;20509;-76
2023/05/03 02:07:34;;;;;;;5.20;3.22;;;6.40;99.90;;;;;;5007324;28;20489;-75
2023/05/03 02:10:01;;;;;;;5.45;3.42;;;6.30;99.90;;;;;;5004677;28;20461;-75
2023/05/03 02:12:27;;;;;;;6.20;3.30;;;6.30;99.90;;;;;;5006664;28;20426;-74
2023/05/03 02:14:53;;;;;;;5.30;3.33;;;6.30;99.90;;;;;;5004502;28;20436;-76
2023/05/03 02:17:19;;;;;;;5.27;3.23;;;6.30;99.90;;;;;;5006011;28;20479;-76
2023/05/03 02:19:45;;;;;;;7.35;3.55;;;6.30;99.90;;;;;;4989054;28;20475;-77
2023/05/03 02:22:11;;;;;;;7.00;3.90;;;6.50;99.90;;;;;;5005770;28;20474;-76
2023/05/03 02:24:36;;;;;;;6.60;3.40;;;6.30;99.90;;;;;;5006286;28;20444;-76
2023/05/03 02:27:03;;;;;;;8.50;3.73;;;6.20;99.90;;;;;;5006378;28;20416;-76
2023/05/03 02:29:30;;;;;;;5.00;2.85;;;6.40;99.90;;;;;;5007109;28;20501;-75
2023/05/03 02:31:56;;;;;;;5.17;2.90;;;6.50;99.90;;;;;;5006534;28;20561;-75
2023/05/03 02:34:22;;;;;;;6.60;3.20;;;6.60;99.90;;;;;;5005467;28;20433;-72
2023/05/03 02:36:48;;;;;;;5.88;3.30;;;6.40;99.90;;;;;;5016084;28;20418;-78
2023/05/03 02:39:13;;;;;;;7.57;3.63;;;6.40;99.90;;;;;;5007950;28;20792;-77
2023/05/03 02:41:39;;;;;;;6.50;3.53;;;6.40;99.90;;;;;;5008553;28;20522;-77
2023/05/03 02:44:05;;;;;;;4.55;2.92;;;6.50;99.90;;;;;;5007337;28;20407;-77
2023/05/03 02:46:30;;;;;;;5.00;3.28;;;6.60;99.90;;;;;;5006664;28;20909;-76
2023/05/03 02:48:56;;;;;;;6.88;3.10;;;6.60;99.90;;;;;;5007737;28;20428;-77
2023/05/03 02:51:21;;;;;;;5.75;3.30;;;6.50;99.90;;;;;;5012560;28;20458;-76
2023/05/03 02:53:47;;;;;;;4.00;3.10;;;6.60;99.90;;;;;;5031798;28;20414;-77
2023/05/03 02:56:13;;;;;;;5.07;2.58;;;6.40;99.90;;;;;;5025464;28;20420;-75
2023/05/03 02:58:38;;;;;;;6.95;3.20;;;6.40;99.90;;;;;;5011653;28;20483;-76
2023/05/03 03:01:04;;;;;;;5.32;2.75;;;6.30;99.90;;;;;;5007554;28;20432;-76
2023/05/03 03:03:30;;;;;;;5.53;2.63;;;6.30;99.90;;;;;;5019082;28;20431;-76
2023/05/03 03:05:55;;;;;;;3.85;2.63;;;6.40;99.90;;;;;;5031286;28;20415;-74
2023/05/03 03:08:21;;;;;;;8.17;2.70;;;6.40;99.90;;;;;;5029113;28;20422;-75
2023/05/03 03:10:47;;;;;;;5.10;2.28;;;6.50;99.90;;;;;;5018733;28;20438;-77
2023/05/03 03:13:13;;;;;;;4.80;3.00;;;6.40;99.90;;;;;;5008080;28;20429;-75
2023/05/03 03:15:39;;;;;;;5.63;3.13;;;6.40;99.90;;;;;;5008453;28;20432;-75
2023/05/03 03:18:05;;;;;;;5.10;2.30;;;6.30;99.90;;;;;;5009186;28;20445;-75
2023/05/03 03:20:30;;;;;;;5.30;2.90;;;6.20;99.90;;;;;;5017742;28;20442;-76
2023/05/03 03:22:56;;;;;;;9.10;2.47;;;6.30;99.90;;;;;;5021286;28;20431;-76
2023/05/03 03:25:22;;;;;;;4.67;2.17;;;6.50;99.90;;;;;;5009633;28;20971;-75
2023/05/03 03:27:47;;;;;;;8.73;2.73;;;6.40;99.90;;;;;;5020896;28;20485;-76
2023/05/03 03:30:14;;;;;;;5.50;2.93;;;6.20;99.90;;;;;;5018537;28;20436;-75
2023/05/03 03:32:40;;;;;;;5.15;3.45;;;6.30;99.90;;;;;;5012849;28;20460;-76
2023/05/03 03:35:07;;;;;;;6.45;2.58;;;6.30;99.90;;;;;;5012515;28;20479;-74
2023/05/03 03:37:32;;;;;;;5.07;3.10;;;6.30;99.90;;;;;;5012808;28;20416;-76
2023/05/03 03:39:58;;;;;;;6.30;2.30;;;6.20;99.90;;;;;;5006690;28;20452;-77
2023/05/03 03:42:24;;;;;;;5.25;2.88;;;6.20;99.90;;;;;;5015884;28;20501;-76
2023/05/03 03:44:50;;;;;;;5.47;3.50;;;6.30;99.90;;;;;;5028410;28;20430;-75
2023/05/03 03:47:16;;;;;;;3.35;2.50;;;6.10;99.90;;;;;;5007762;28;20476;-77
2023/05/03 03:49:41;;;;;;;6.18;2.60;;;6.00;99.90;;;;;;5016129;28;20502;-77
2023/05/03 03:52:07;;;;;;;7.13;3.23;;;6.00;99.90;;;;;;5007955;28;20525;-76
2023/05/03 03:54:36;;;;;;;5.37;2.87;;;5.90;99.90;;;;;;5016568;28;20847;-76
2023/05/03 03:57:01;;;;;;;5.20;2.90;;;5.90;99.90;;;;;;5027090;28;20490;-76
2023/05/03 03:59:28;;;;;;;6.80;3.30;;;5.90;99.90;;;;;;5028138;28;20501;-76
2023/05/03 04:01:54;;;;;;;5.72;3.42;;;5.90;99.90;;;;;;5015145;28;20422;-79
2023/05/03 04:04:20;;;;;;;5.05;2.80;;;6.00;99.90;;;;;;5021346;28;20475;-76
2023/05/03 04:06:45;;;;;;;5.95;3.17;;;6.00;99.90;;;;;;5007922;28;20991;-77
2023/05/03 04:09:11;;;;;;;5.32;3.63;;;6.00;99.90;;;;;;5005047;28;21029;-77
2023/05/03 04:11:37;;;;;;;6.50;3.27;;;6.00;99.90;;;;;;5016179;28;20827;-75
2023/05/03 04:14:03;;;;;;;7.37;3.40;;;5.90;99.90;;;;;;5009194;28;20428;-77
2023/05/03 04:16:29;;;;;;;8.63;4.30;;;5.90;99.90;;;;;;5009230;28;20461;-77
2023/05/03 04:18:54;;;;;;;6.25;3.65;;;5.90;99.90;;;;;;5020932;28;20458;-75
2023/05/03 04:21:20;;;;;;;7.90;3.75;;;5.90;99.90;;;;;;5017771;28;20420;-76
2023/05/03 04:23:46;;;;;;;9.57;6.15;;;5.90;99.90;;;;;;5016080;28;20443;-75
2023/05/03 04:26:12;;;;;;;9.83;5.30;;;5.90;99.90;;;;;;5007977;28;20425;-77
2023/05/03 04:28:38;;;;;;;10.65;4.97;;;6.00;99.90;;;;;;5018480;28;20422;-77
2023/05/03 04:31:04;;;;;;;8.43;4.60;;;5.90;99.90;;;;;;5019341;28;20459;-77
2023/05/03 04:33:30;;;;;;;10.05;4.85;;;6.20;99.90;;;;;;5022346;28;20472;-76
2023/05/03 04:35:56;;;;;;;12.43;4.87;;;6.10;99.90;;;;;;5028966;28;20411;-77
2023/05/03 04:38:22;;;;;;;6.85;3.90;;;6.10;99.90;;;;;;5022150;28;20517;-77
2023/05/03 04:40:48;;;;;;;8.65;3.60;;;6.10;99.90;;;;;;5014408;28;20948;-76
2023/05/03 04:43:14;;;;;;;6.72;3.78;;;6.00;99.90;;;;;;5008774;28;20479;-76
2023/05/03 04:45:40;;;;;;;5.75;3.00;;;6.10;99.90;;;;;;5009038;28;20503;-77
2023/05/03 04:48:06;;;;;;;6.82;2.80;;;6.10;99.90;;;;;;5008363;28;20434;-76
2023/05/03 04:50:33;;;;;;;7.25;2.45;;;6.30;99.90;;;;;;5007109;28;20507;-77
2023/05/03 04:52:58;;;;;;;6.22;2.25;;;6.40;99.90;;;;;;5008415;28;20556;-75
2023/05/03 04:55:24;;;;;;;5.63;3.00;;;6.50;99.90;;;;;;5008720;28;20500;-76
2023/05/03 04:57:50;;;;;;;4.73;2.67;;;6.30;99.90;;;;;;5009813;28;20803;-76
2023/05/03 05:00:16;;;;;;;5.07;2.43;;;6.30;99.90;;;;;;5016244;28;20427;-74
2023/05/03 05:02:42;;;;;;;5.85;2.40;;;6.50;99.90;;;;;;5010321;28;20523;-74
2023/05/03 05:05:09;;;;;;;5.90;1.80;;;6.70;99.90;;;;;;5008574;28;21109;-74
2023/05/03 05:07:35;;;;;;;6.07;2.00;;;6.80;99.90;;;;;;5010565;28;20507;-75
2023/05/03 05:10:01;;;;;;;7.00;2.72;;;6.80;99.90;;;;;;5023749;28;20465;-76
2023/05/03 05:12:28;;;;;;;10.17;2.80;;;7.00;99.90;;;;;;4998033;28;20438;-74
2023/05/03 05:14:53;;;;;;;3.97;1.83;;;7.00;99.90;;;;;;5005241;28;20462;-76
2023/05/03 05:17:20;;;;;;;4.70;1.90;;;7.20;99.90;;;;;;5017950;28;20415;-75
2023/05/03 05:19:46;;;;;;;7.38;1.98;;;7.20;99.90;;;;;;5012232;28;20443;-76
2023/05/03 05:22:11;;;;;;;4.67;2.00;;;7.30;99.90;;;;;;5008270;28;20855;-75
2023/05/03 05:24:37;;;;;;;6.43;1.90;;;7.30;99.90;;;;;;5014497;28;20510;-75
2023/05/03 05:27:03;;;;;;;6.30;2.07;;;7.40;99.90;;;;;;5016932;28;20510;-76
2023/05/03 05:29:29;;;;;;;4.80;2.15;;;7.40;99.90;;;;;;5010975;28;20951;-76
2023/05/03 05:31:55;;;;;;;3.15;1.83;;;7.40;99.90;;;;;;5023992;28;20419;-75
2023/05/03 05:34:20;;;;;;;6.95;3.35;;;7.30;99.90;;;;;;5015572;28;20463;-76
2023/05/03 05:36:46;;;;;;;3.47;1.90;;;7.60;99.90;;;;;;5028632;28;20743;-75
2023/05/03 05:39:12;;;;;;;7.00;2.25;;;7.60;99.90;;;;;;5013265;28;20465;-75
2023/05/03 05:41:38;;;;;;;7.78;2.80;;;7.80;99.90;;;;;;5029195;28;20411;-75
2023/05/03 05:44:04;;;;;;;4.85;2.28;;;7.60;99.90;;;;;;5010061;28;20425;-75
2023/05/03 05:46:29;;;;;;;6.28;2.03;;;7.60;99.90;;;;;;4997677;28;20440;-77
2023/05/03 05:48:55;;;;;;;4.07;2.10;;;7.70;99.90;;;;;;5009413;28;20912;-75
2023/05/03 05:51:21;;;;;;;3.78;1.70;;;7.70;99.90;;;;;;5000277;28;20428;-75
2023/05/03 05:53:46;;;;;;;4.28;1.65;;;7.80;99.90;;;;;;5006371;28;20456;-75
2023/05/03 05:56:12;;;;;;;4.15;1.52;;;7.90;99.90;;;;;;5010607;28;20807;-75
2023/05/03 05:58:38;;;;;;;6.43;1.80;;;8.10;99.90;;;;;;5006461;28;20515;-75
2023/05/03 06:01:04;;;;;;;7.45;2.38;;;8.10;99.90;;;;;;5022494;28;20437;-75
2023/05/03 06:03:30;;;;;;;9.35;2.20;;;8.00;99.90;;;;;;5028806;28;20427;-76
2023/05/03 06:05:56;;;;;;;4.45;1.30;;;8.20;99.90;;;;;;5023613;28;20432;-76
2023/05/03 06:08:22;;;;;;;3.45;1.15;;;8.30;99.90;;;;;;5025146;28;20435;-75
2023/05/03 06:10:48;;;;;;;4.43;1.30;;;8.30;99.90;;;;;;5012386;28;20539;-75
2023/05/03 06:13:13;;;;;;;4.05;1.50;;;8.50;99.90;;;;;;5011115;28;20429;-74
2023/05/03 06:15:40;;;;;;;3.53;1.60;;;8.60;99.90;;;;;;5008926;28;20904;-75
2023/05/03 06:18:06;;;;;;;5.38;1.67;;;8.70;99.90;;;;;;5018278;28;20522;-75
2023/05/03 06:20:32;;;;;;;4.90;1.48;;;8.80;99.90;;;;;;5020438;28;20536;-74
2023/05/03 06:22:57;;;;;;;4.53;1.20;;;8.90;99.90;;;;;;5028413;28;20940;-75
2023/05/03 06:25:23;;;;;;;5.70;1.30;;;9.00;99.90;;;;;;5021956;28;20936;-72
2023/05/03 06:27:48;;;;;;;3.43;0.80;;;9.00;99.90;;;;;;5009377;28;20420;-74
2023/05/03 06:30:14;;;;;;;4.27;0.90;;;9.10;99.90;;;;;;5007133;28;20524;-75
2023/05/03 06:32:41;;;;;;;2.70;0.90;;;9.40;99.90;;;;;;5008279;28;20417;-75
2023/05/03 06:35:08;;;;;;;5.25;1.50;;;9.10;99.90;;;;;;5018025;28;20461;-73
2023/05/03 06:37:34;;;;;;;8.33;1.33;;;9.20;99.90;;;;;;5000725;28;20545;-74
2023/05/03 06:40:00;;;;;;;4.75;1.27;;;9.40;99.90;;;;;;5007855;28;20758;-75
2023/05/03 06:42:26;;;;;;;3.93;1.10;;;9.30;99.90;;;;;;5011156;28;20397;-74
2023/05/03 06:44:52;;;;;;;4.95;1.15;;;9.40;99.90;;;;;;5005756;28;20438;-74
2023/05/03 06:47:19;;;;;;;3.67;1.45;;;9.40;99.90;;;;;;4999334;28;20425;-75
2023/05/03 06:49:45;;;;;;;5.82;1.23;;;9.30;99.90;;;;;;5007173;28;20448;-74
2023/05/03 06:52:11;;;;;;;3.97;0.90;;;9.60;99.90;;;;;;5003520;28;20425;-74
2023/05/03 06:54:36;;;;;;;3.93;1.20;;;9.60;99.90;;;;;;5004530;28;20443;-72
2023/05/03 06:57:03;;;;;;;3.80;1.47;;;9.70;99.90;;;;;;4998947;28;20449;-74
2023/05/03 06:59:29;;;;;;;6.73;1.10;;;9.80;99.90;;;;;;5000237;28;20432;-74
2023/05/03 07:01:55;;;;;;;4.43;0.90;;;9.80;99.90;;;;;;4997103;28;20420;-76
2023/05/03 07:04:21;;;;;;;3.30;0.83;;;9.90;99.90;;;;;;4999729;28;21001;-74
2023/05/03 07:06:46;;;;;;;6.60;1.30;;;9.90;99.90;;;;;;5012424;28;20427;-74
2023/05/03 07:09:12;;;;;;;4.03;0.90;;;9.90;99.90;;;;;;5004916;28;20482;-75
2023/05/03 07:11:43;;;;;;;3.97;1.10;;;9.80;99.90;;;;;;5019726;28;20486;-75
2023/05/03 07:14:09;;;;;;;5.13;1.40;;;9.80;99.90;;;;;;5014838;28;20437;-74
2023/05/03 07:16:34;;;;;;;2.85;0.90;;;9.70;99.90;;;;;;5003683;28;20433;-72
2023/05/03 07:19:00;;;;;;;4.63;1.30;;;10.00;99.90;;;;;;5009066;28;20929;-74
2023/05/03 07:21:28;;;;;;;9.00;2.57;;;10.30;99.90;;;;;;5003852;28;20579;-73
2023/05/03 07:23:53;;;;;;;4.78;1.00;;;10.30;99.90;;;;;;5004530;28;20419;-74
2023/05/03 07:26:20;;;;;;;6.20;1.13;;;10.20;99.90;;;;;;5013809;28;20571;-75
2023/05/03 07:28:46;;;;;;;4.72;1.40;;;10.30;99.90;;;;;;5008473;28;20448;-74
2023/05/03 07:31:11;;;;;;;6.32;2.05;;;9.70;99.90;;;;;;5003091;28;20845;-75
2023/05/03 07:33:37;;;;;;;5.45;1.77;;;10.30;99.90;;;;;;5007452;28;20936;-75
2023/05/03 07:36:04;;;;;;;4.15;1.05;;;10.60;99.90;;;;;;5011011;28;20512;-76
2023/05/03 07:38:30;;;;;;;2.35;0.88;;;9.90;99.90;;;;;;4997349;28;20430;-75
2023/05/03 07:40:55;;;;;;;5.32;1.08;;;10.10;99.90;;;;;;5011934;28;20449;-75
2023/05/03 07:43:22;;;;;;;6.32;1.90;;;10.10;99.90;;;;;;5008962;28;20439;-74
2023/05/03 07:45:48;;;;;;;11.48;4.38;;;10.20;99.90;;;;;;5009324;28;20472;-74
2023/05/03 07:48:14;;;;;;;4.63;1.27;;;10.20;99.90;;;;;;5009844;28;20491;-75
2023/05/03 07:50:43;;;;;;;1.95;0.95;;;10.60;99.90;;;;;;5010400;28;20875;-75
2023/05/03 07:53:11;;;;;;;2.93;0.93;;;10.30;99.90;;;;;;5011540;28;20420;-75
2023/05/03 07:55:36;;;;;;;2.47;0.93;;;10.20;99.90;;;;;;5007423;28;20494;-75
2023/05/03 07:58:03;;;;;;;3.20;0.75;;;10.60;99.90;;;;;;5009746;28;20436;-75
2023/05/03 08:00:29;;;;;;;3.85;0.80;;;10.80;99.90;;;;;;5007253;28;20487;-75
2023/05/03 08:02:55;;;;;;;5.15;1.55;;;10.40;99.90;;;;;;5015600;28;20449;-75
2023/05/03 08:05:22;;;;;;;3.30;0.93;;;10.40;99.90;;;;;;5007467;28;20528;-74
2023/05/03 08:07:51;;;;;;;3.90;1.35;;;10.30;99.90;;;;;;5005652;28;21008;-74
2023/05/03 08:10:17;;;;;;;6.63;0.80;;;10.10;99.90;;;;;;5007842;28;20800;-74
2023/05/03 08:12:44;;;;;;;5.90;1.20;;;10.30;99.90;;;;;;5009544;28;20415;-74
2023/05/03 08:15:10;;;;;;;5.32;1.15;;;10.20;99.90;;;;;;5007248;28;20872;-74
2023/05/03 08:17:43;;;;;;;2.97;0.90;;;10.30;99.90;;;;;;5006131;28;20456;-74
2023/05/03 08:20:10;;;;;;;6.40;1.13;;;10.10;99.90;;;;;;5008212;28;20436;-74
2023/05/03 08:22:37;;;;;;;3.72;0.90;;;10.20;99.90;;;;;;5008503;28;20490;-73
2023/05/03 08:25:03;;;;;;;3.70;0.70;;;10.50;99.90;;;;;;5007096;28;20967;-75
2023/05/03 08:27:30;;;;;;;3.85;1.00;;;10.20;99.90;;;;;;5009332;28;20409;-74
2023/05/03 08:29:56;;;;;;;3.08;0.93;;;10.30;99.90;;;;;;5008846;28;20465;-73
2023/05/03 08:32:22;;;;;;;3.80;0.93;;;10.50;99.90;;;;;;5007350;28;20464;-73
2023/05/03 08:34:49;;;;;;;4.27;0.83;;;10.50;99.90;;;;;;5008323;28;20847;-74
2023/05/03 08:37:15;;;;;;;3.72;0.98;;;10.40;99.90;;;;;;5008650;28;20913;-74
2023/05/03 08:39:40;;;;;;;4.83;0.70;;;10.50;99.90;;;;;;5006446;28;20445;-74
2023/05/03 08:42:07;;;;;;;3.57;0.77;;;10.20;99.90;;;;;;5008686;28;20413;-74
2023/05/03 08:44:36;;;;;;;3.42;1.33;;;10.40;99.90;;;;;;5007909;28;20475;-74
2023/05/03 08:47:06;;;;;;;4.80;1.27;;;10.40;99.90;;;;;;5007479;28;20524;-74
2023/05/03 08:49:36;;;;;;;5.70;1.70;;;10.10;99.90;;;;;;5005478;28;20432;-73
2023/05/03 08:52:05;;;;;;;3.85;1.35;;;10.50;99.90;;;;;;5008119;28;20433;-75
2023/05/03 08:54:30;;;;;;;3.28;0.98;;;10.40;99.90;;;;;;5006108;28;20523;-74
2023/05/03 08:56:56;;;;;;;3.15;1.15;;;10.60;99.90;;;;;;5007704;28;20496;-74
2023/05/03 08:59:23;;;;;;;4.33;1.50;;;10.70;99.90;;;;;;5008817;28;20433;-75
2023/05/03 09:01:49;;;;;;;5.70;1.48;;;10.40;99.90;;;;;;5009569;28;20503;-75
2023/05/03 09:04:16;;;;;;;1.75;0.63;;;10.10;99.90;;;;;;5007169;28;20516;-75
2023/05/03 09:06:41;;;;;;;2.97;0.80;;;10.50;99.90;;;;;;5012266;28;20430;-73
2023/05/03 09:09:08;;;;;;;5.82;1.30;;;10.60;99.90;;;;;;5009421;28;20435;-74
2023/05/03 09:11:36;;;;;;;4.47;1.60;;;10.90;99.90;;;;;;5008769;28;20448;-74
2023/05/03 09:14:12;;;;;;;3.23;0.60;;;10.60;99.90;;;;;;5008401;28;20456;-74
2023/05/03 09:16:40;;;;;;;5.53;1.37;;;10.50;99.90;;;;;;5014351;28;20574;-75
2023/05/03 09:19:08;;;;;;;3.15;0.88;;;10.40;99.90;;;;;;5006193;28;20977;-73
2023/05/03 09:21:35;;;;;;;3.57;1.20;;;10.80;99.90;;;;;;5007681;28;20425;-75
2023/05/03 09:24:02;;;;;;;5.30;1.00;;;10.60;99.90;;;;;;5008886;28;20499;-75
2023/05/03 09:26:29;;;;;;;3.53;1.00;;;10.70;99.90;;;;;;5008761;28;20419;-75
2023/05/03 09:28:57;;;;;;;5.60;0.83;;;10.80;99.90;;;;;;5008186;28;21174;-75
2023/05/03 09:31:23;;;;;;;3.45;1.30;;;10.90;99.90;;;;;;4998740;28;20517;-75
2023/05/03 09:33:48;;;;;;;3.23;0.93;;;10.80;99.90;;;;;;5005995;28;20508;-75
2023/05/03 09:36:14;;;;;;;8.60;1.93;;;10.70;99.90;;;;;;5009063;28;20467;-75
2023/05/03 09:38:40;;;;;;;2.33;0.70;;;10.80;99.90;;;;;;5007801;28;20421;-76
2023/05/03 09:41:06;;;;;;;4.43;1.38;;;10.80;99.90;;;;;;5006634;28;21002;-74
2023/05/03 09:43:33;;;;;;;5.03;1.43;;;10.80;99.90;;;;;;5006621;28;20936;-73
2023/05/03 09:46:12;;;;;;;2.33;0.63;;;10.80;99.90;;;;;;5021388;28;20430;-75
2023/05/03 09:48:38;;;;;;;3.38;1.05;;;10.90;99.90;;;;;;5027558;28;20457;-74
2023/05/03 09:51:05;;;;;;;3.58;1.00;;;11.50;99.90;;;;;;5022682;28;20419;-74
2023/05/03 09:53:32;;;;;;;4.70;1.50;;;11.20;99.90;;;;;;5009255;28;20777;-74
2023/05/03 09:56:01;;;;;;;3.53;0.75;;;11.60;99.90;;;;;;5019875;28;20431;-75
2023/05/03 09:58:29;;;;;;;4.55;1.10;;;11.40;99.90;;;;;;5008940;28;20432;-75
2023/05/03 10:00:56;;;;;;;2.70;0.68;;;11.20;99.90;;;;;;4991632;28;20438;-73
2023/05/03 10:03:43;;;;;;;6.30;0.80;;;11.30;99.90;;;;;;4989313;28;20906;-75
2023/05/03 10:06:21;;;;;;;3.78;1.02;;;11.20;99.90;;;;;;4993583;28;20911;-74
2023/05/03 10:09:05;;;;;;;3.33;1.20;;;11.20;99.90;;;;;;5006059;28;20944;-74
2023/05/03 10:11:33;;;;;;;2.93;0.90;;;11.50;99.90;;;;;;5007058;28;20428;-74
2023/05/03 10:13:59;;;;;;;4.32;1.25;;;11.30;99.90;;;;;;5016293;28;20436;-74
2023/05/03 10:17:02;;;;;;;2.97;1.05;;;11.80;99.90;;;;;;5004540;28;20445;-74
2023/05/03 10:19:54;;;;;;;2.53;0.65;;;11.60;99.90;;;;;;5006420;28;20435;-75
2023/05/03 10:22:20;;;;;;;5.80;0.90;;;11.40;99.90;;;;;;5022735;28;20404;-75
2023/05/03 10:25:01;;;;;;;4.15;0.60;;;11.30;99.90;;;;;;5018122;28;20481;-74
2023/05/03 10:27:45;;;;;;;3.67;1.02;;;11.50;99.90;;;;;;5015832;28;20465;-74
2023/05/03 10:30:34;;;;;;;4.97;1.48;;;12.00;99.90;;;;;;5013608;28;20438;-75
2023/05/03 10:33:11;;;;;;;8.63;1.57;;;11.90;99.90;;;;;;5004306;28;20437;-75
2023/05/03 10:35:42;;;;;;;5.30;1.77;;;12.10;99.90;;;;;;5013295;28;20435;-75
2023/05/03 10:38:14;;;;;;;5.68;1.08;;;12.10;99.90;;;;;;5008442;28;20412;-74
2023/05/03 10:40:42;;;;;;;3.10;1.00;;;12.10;99.90;;;;;;5004081;28;20452;-75
2023/05/03 10:43:27;;;;;;;3.85;0.85;;;12.10;99.90;;;;;;5007955;28;20420;-75
2023/05/03 10:45:59;;;;;;;10.40;1.20;;;12.20;99.90;;;;;;5006385;28;20416;-77
2023/05/03 10:48:25;;;;;;;3.07;0.90;;;12.40;99.90;;;;;;5005663;28;20813;-76
2023/05/03 10:50:51;;;;;;;6.30;1.67;;;11.90;99.90;;;;;;5019824;28;20415;-76
2023/05/03 10:53:37;;;;;;;5.22;1.77;;;12.10;99.90;;;;;;5025500;28;20588;-76
2023/05/03 10:56:10;;;;;;;4.23;0.80;;;12.60;99.90;;;;;;5008072;28;20420;-77
2023/05/03 10:58:45;;;;;;;4.75;1.17;;;12.60;99.90;;;;;;5000755;28;20516;-78
2023/05/03 11:01:13;;;;;;;4.30;1.50;;;12.10;99.90;;;;;;5011018;28;20465;-77
2023/05/03 11:04:07;;;;;;;2.70;0.88;;;12.00;99.90;;;;;;5006066;28;20412;-78
2023/05/03 11:06:37;;;;;;;4.00;1.20;;;12.30;99.90;;;;;;5005059;28;20512;-76
2023/05/03 11:09:06;;;;;;;3.83;1.25;;;11.90;99.90;;;;;;5005117;28;20516;-75
2023/05/03 11:11:34;;;;;;;4.18;1.23;;;12.00;99.90;;;;;;5016748;28;20427;-78
2023/05/03 11:14:00;;;;;;;3.10;1.13;;;12.10;99.90;;;;;;5008488;28;20432;-80
2023/05/03 11:16:26;;;;;;;8.90;1.10;;;12.20;99.90;;;;;;5010583;28;20432;-77
2023/05/03 11:18:52;;;;;;;3.08;0.88;;;12.20;99.90;;;;;;5010450;28;20422;-81
2023/05/03 11:21:18;;;;;;;3.88;0.88;;;11.90;99.90;;;;;;5007947;28;20977;-76
2023/05/03 11:23:44;;;;;;;2.67;0.98;;;12.10;99.90;;;;;;5008758;28;20420;-77
2023/05/03 11:26:10;;;;;;;4.43;1.30;;;12.70;99.90;;;;;;5009848;28;20424;-76
2023/05/03 11:28:41;;;;;;;2.58;0.80;;;12.70;99.90;;;;;;4992925;28;20920;-77
2023/05/03 11:31:11;;;;;;;4.50;1.40;;;12.50;99.90;;;;;;5009431;28;20405;-76
2023/05/03 11:33:37;;;;;;;3.13;1.10;;;12.30;99.90;;;;;;5006570;28;20471;-76
2023/05/03 11:36:05;;;;;;;3.50;0.98;;;12.20;99.90;;;;;;5008769;28;20451;-78
2023/05/03 11:38:34;;;;;;;4.03;1.33;;;11.90;99.90;;;;;;5009393;28;20440;-76
2023/05/03 11:41:10;;;;;;;6.53;1.50;;;12.80;99.90;;;;;;5008038;28;20495;-76
2023/05/03 11:43:40;;;;;;;4.07;1.40;;;12.60;99.90;;;;;;5003798;28;20440;-81
2023/05/03 11:46:07;;;;;;;2.38;0.80;;;12.60;99.90;;;;;;5007134;28;20835;-79
2023/05/03 11:48:33;;;;;;;4.80;1.20;;;12.40;99.90;;;;;;5010182;28;20440;-79
2023/05/03 11:51:05;;;;;;;3.45;0.90;;;12.90;99.90;;;;;;5009937;28;20405;-76
2023/05/03 11:53:32;;;;;;;4.22;1.00;;;13.00;99.90;;;;;;5003313;28;20499;-77
2023/05/03 11:55:59;;;;;;;4.60;0.90;;;12.60;99.90;;;;;;5016648;28;20455;-75
2023/05/03 11:58:25;;;;;;;3.00;0.80;;;12.80;99.90;;;;;;5007996;28;20979;-77
2023/05/03 12:00:56;;;;;;;3.78;0.98;;;13.10;99.90;;;;;;5010180;28;20428;-76
2023/05/03 12:03:24;;;;;;;3.55;1.40;;;13.10;99.90;;;;;;5018873;28;20500;-77
2023/05/03 12:05:51;;;;;;;7.10;1.10;;;12.80;99.90;;;;;;5026379;28;20432;-78
2023/05/03 12:08:20;;;;;;;4.07;1.15;;;13.30;99.90;;;;;;5016795;28;20431;-77
2023/05/03 12:10:46;;;;;;;4.03;1.35;;;12.10;99.90;;;;;;5027583;28;20610;-75
2023/05/03 12:13:12;;;;;;;3.80;1.20;;;11.90;99.90;;;;;;5015755;28;20867;-76
2023/05/03 12:15:38;;;;;;;3.27;1.07;;;12.30;99.90;;;;;;5017523;28;20435;-76
2023/05/03 12:18:09;;;;;;;4.20;1.43;;;12.50;99.90;;;;;;5008334;28;20462;-76
2023/05/03 12:20:37;;;;;;;3.75;1.38;;;12.50;99.90;;;;;;5008385;28;20560;-76
2023/05/03 12:23:06;;;;;;;2.70;1.30;;;12.10;99.90;;;;;;5005702;28;21079;-74
2023/05/03 12:25:33;;;;;;;3.10;1.00;;;12.30;99.90;;;;;;5008518;28;20413;-78
2023/05/03 12:28:01;;;;;;;7.23;2.13;;;11.90;99.90;;;;;;5011533;28;20433;-75
2023/05/03 12:30:27;;;;;;;4.40;1.48;;;12.10;99.90;;;;;;5011038;28;20412;-79
2023/05/03 12:32:53;;;;;;;5.10;1.17;;;12.60;99.90;;;;;;5020185;28;20591;-75
2023/05/03 12:35:19;;;;;;;4.40;1.42;;;12.80;99.90;;;;;;5010106;28;20413;-77
2023/05/03 12:37:47;;;;;;;1.77;1.00;;;12.70;99.90;;;;;;5009194;28;20425;-75
2023/05/03 12:40:13;;;;;;;5.53;1.20;;;12.60;99.90;;;;;;5010314;28;20958;-76
2023/05/03 12:42:39;;;;;;;4.25;1.67;;;12.70;99.90;;;;;;5017723;28;20423;-76
2023/05/03 12:45:06;;;;;;;2.17;1.02;;;12.90;99.90;;;;;;5028608;28;20421;-73
2023/05/03 12:47:32;;;;;;;2.80;1.45;;;13.00;99.90;;;;;;5007877;28;20460;-76
2023/05/03 12:49:58;;;;;;;5.07;1.50;;;12.80;99.90;;;;;;5013580;28;20451;-78
2023/05/03 12:52:24;;;;;;;3.67;1.50;;;12.50;99.90;;;;;;5008165;28;20400;-76
2023/05/03 12:54:49;;;;;;;7.93;2.30;;;12.30;99.90;;;;;;5007220;28;20521;-75